Time;durP1;ratioP1;P1;durP2;ratioP2;P2;SDS_P1;SDS_P2;PMS_P1;PMS_P2;Temp;Humidity;BMP_temperature;BMP_pressure;BME280_temperature;BME280_humidity;BME280_pressure;Samples;Min_cycle;Max_cycle;Signal;HPM_P1;HPM_P2
2022/12/28 00:01:16;;;;;;;10.20;5.15;;;4.70;99.90;;;;;;5078354;28;20456;-65
2022/12/28 00:03:42;;;;;;;11.23;4.70;;;4.70;99.90;;;;;;5078505;28;20056;-65
2022/12/28 00:06:08;;;;;;;10.35;5.10;;;4.70;99.90;;;;;;5078688;28;20040;-66
2022/12/28 00:08:34;;;;;;;8.75;5.07;;;4.70;99.90;;;;;;5082711;28;20483;-65
2022/12/28 00:11:01;;;;;;;11.77;5.35;;;4.70;99.90;;;;;;5085434;28;20039;-65
2022/12/28 00:13:29;;;;;;;12.95;5.22;;;4.70;99.90;;;;;;5103528;28;20042;-65
2022/12/28 00:15:54;;;;;;;10.55;5.22;;;4.70;99.90;;;;;;5088099;28;20142;-65
2022/12/28 00:18:20;;;;;;;11.82;4.97;;;4.70;99.90;;;;;;5109011;28;20562;-65
2022/12/28 00:20:59;;;;;;;11.60;4.38;;;4.80;99.90;;;;;;5084990;28;20063;-66
2022/12/28 00:23:25;;;;;;;11.95;5.20;;;4.80;99.90;;;;;;5085545;28;20039;-66
2022/12/28 00:25:51;;;;;;;10.77;4.95;;;4.70;99.90;;;;;;5091134;28;20059;-65
2022/12/28 00:28:17;;;;;;;12.02;5.18;;;4.80;99.90;;;;;;5085650;28;20416;-65
2022/12/28 00:30:42;;;;;;;13.77;5.35;;;4.70;99.90;;;;;;5103815;28;20534;-65
2022/12/28 00:33:08;;;;;;;13.25;5.50;;;4.70;99.90;;;;;;5080079;28;20068;-65
2022/12/28 00:35:33;;;;;;;13.50;5.65;;;4.80;99.90;;;;;;5067348;28;20495;-65
2022/12/28 00:37:59;;;;;;;12.77;5.32;;;4.80;99.90;;;;;;5101928;28;20055;-65
2022/12/28 00:40:24;;;;;;;16.00;5.55;;;4.70;99.90;;;;;;5106430;28;20475;-65
2022/12/28 00:42:50;;;;;;;15.95;5.90;;;4.80;99.90;;;;;;5103767;28;20109;-66
2022/12/28 00:45:16;;;;;;;12.20;5.32;;;4.70;99.90;;;;;;5100565;28;20535;-65
2022/12/28 00:47:42;;;;;;;12.63;6.15;;;4.70;99.90;;;;;;5107593;28;20475;-65
2022/12/28 00:50:08;;;;;;;17.85;5.63;;;4.80;99.90;;;;;;5086425;28;20464;-65
2022/12/28 00:52:33;;;;;;;12.75;6.00;;;4.80;99.90;;;;;;5081738;28;20047;-67
2022/12/28 00:54:59;;;;;;;15.23;6.07;;;4.80;99.90;;;;;;5104782;28;20054;-67
2022/12/28 00:57:25;;;;;;;15.13;5.97;;;4.70;99.90;;;;;;5108457;28;20031;-66
2022/12/28 00:59:50;;;;;;;14.77;6.45;;;4.70;99.90;;;;;;5109352;28;20502;-65
2022/12/28 01:02:16;;;;;;;14.07;6.43;;;4.80;99.90;;;;;;5106663;28;20502;-67
2022/12/28 01:04:41;;;;;;;12.52;6.93;;;4.80;99.90;;;;;;5090982;28;20035;-67
2022/12/28 01:07:07;;;;;;;12.38;6.22;;;4.70;99.90;;;;;;5089103;28;21963;-66
2022/12/28 01:09:32;;;;;;;14.50;6.25;;;4.70;99.90;;;;;;5110879;28;20485;-66
2022/12/28 01:11:58;;;;;;;12.35;6.20;;;4.80;99.90;;;;;;5089825;28;20064;-67
2022/12/28 01:14:24;;;;;;;11.23;5.50;;;4.80;99.90;;;;;;5105573;28;20514;-66
2022/12/28 01:16:49;;;;;;;13.57;7.30;;;4.70;99.90;;;;;;5084580;28;20735;-68
2022/12/28 01:19:19;;;;;;;13.18;6.10;;;4.80;99.90;;;;;;5082234;28;20126;-66
2022/12/28 01:21:48;;;;;;;10.15;6.07;;;4.80;99.90;;;;;;5102591;28;20047;-66
2022/12/28 01:24:13;;;;;;;12.07;6.20;;;4.90;99.90;;;;;;5085517;28;20066;-67
2022/12/28 01:26:39;;;;;;;14.15;6.85;;;4.80;99.90;;;;;;5073348;28;20063;-67
2022/12/28 01:29:05;;;;;;;16.27;6.97;;;4.80;99.90;;;;;;5084054;28;20051;-66
2022/12/28 01:31:31;;;;;;;12.57;6.50;;;4.80;99.90;;;;;;5087477;28;20036;-64
2022/12/28 01:33:56;;;;;;;12.80;6.38;;;4.80;99.90;;;;;;5102862;28;20050;-64
2022/12/28 01:36:25;;;;;;;14.05;7.25;;;4.90;99.90;;;;;;5081448;28;20035;-68
2022/12/28 01:38:53;;;;;;;15.00;6.47;;;4.80;99.90;;;;;;5080549;28;20051;-68
2022/12/28 01:41:19;;;;;;;13.90;7.07;;;4.90;99.90;;;;;;5082360;28;20407;-65
2022/12/28 01:43:50;;;;;;;15.32;6.97;;;4.80;99.90;;;;;;5103304;28;20043;-66
2022/12/28 01:46:21;;;;;;;16.23;6.63;;;4.90;99.90;;;;;;5082761;28;20130;-66
2022/12/28 01:48:59;;;;;;;13.27;7.05;;;4.90;99.90;;;;;;5082203;28;20123;-66
2022/12/28 01:51:28;;;;;;;14.45;6.22;;;4.90;99.90;;;;;;5093338;28;20050;-65
2022/12/28 01:53:55;;;;;;;13.20;6.72;;;4.90;99.90;;;;;;5091609;28;20067;-65
2022/12/28 01:56:22;;;;;;;17.15;6.97;;;4.90;99.90;;;;;;5103433;28;20426;-67
2022/12/28 01:58:48;;;;;;;17.33;8.00;;;5.00;99.90;;;;;;5110404;28;20440;-66
2022/12/28 02:01:14;;;;;;;13.88;7.47;;;5.00;99.90;;;;;;5102129;28;20201;-65
2022/12/28 02:03:39;;;;;;;14.23;6.35;;;5.00;99.90;;;;;;5109549;28;20143;-67
2022/12/28 02:06:10;;;;;;;14.93;7.53;;;5.00;99.90;;;;;;5107186;28;20110;-67
2022/12/28 02:09:03;;;;;;;15.23;6.35;;;5.00;99.90;;;;;;5089369;28;20040;-68
2022/12/28 02:11:30;;;;;;;14.18;6.82;;;5.00;99.90;;;;;;5085014;28;20054;-66
2022/12/28 02:13:57;;;;;;;12.93;6.50;;;5.10;99.90;;;;;;5103162;28;20498;-67
2022/12/28 02:16:23;;;;;;;14.88;6.95;;;5.00;99.90;;;;;;5077196;28;20056;-67
2022/12/28 02:18:48;;;;;;;13.15;6.35;;;5.10;99.90;;;;;;5082325;28;20055;-65
2022/12/28 02:21:39;;;;;;;14.68;6.78;;;5.00;99.90;;;;;;5084646;28;20028;-66
2022/12/28 02:24:23;;;;;;;16.23;6.82;;;5.10;99.90;;;;;;5081306;28;20464;-67
2022/12/28 02:27:01;;;;;;;15.70;6.75;;;5.10;99.90;;;;;;5085321;28;20066;-70
2022/12/28 02:30:02;;;;;;;17.70;7.53;;;5.10;99.90;;;;;;5077176;28;20040;-68
2022/12/28 02:32:52;;;;;;;11.63;7.53;;;5.10;99.90;;;;;;5078375;28;22773;-67
2022/12/28 02:35:37;;;;;;;;;;;5.20;99.90;;;;;;5074998;28;20056;-67
2022/12/28 02:38:15;;;;;;;21.70;9.10;;;5.30;99.90;;;;;;5080616;28;19958;-66
2022/12/28 02:41:04;;;;;;;13.70;7.60;;;5.20;99.90;;;;;;5079640;28;20033;-66
2022/12/28 02:43:32;;;;;;;18.40;8.27;;;5.20;99.90;;;;;;5075744;28;20059;-67
2022/12/28 02:52:21;;;;;;;17.00;8.88;;;5.30;99.90;;;;;;5088309;28;20044;-69
2022/12/28 02:57:58;;;;;;;17.88;8.10;;;5.30;99.90;;;;;;5086633;28;20407;-67
2022/12/28 03:00:28;;;;;;;14.57;7.93;;;5.30;99.90;;;;;;5079049;28;20036;-69
2022/12/28 03:03:30;;;;;;;13.25;7.63;;;5.40;99.90;;;;;;5083104;28;20625;-68
2022/12/28 03:09:33;;;;;;;15.57;7.90;;;5.30;99.90;;;;;;5083207;28;20127;-68
2022/12/28 03:12:37;;;;;;;18.58;8.57;;;5.40;99.90;;;;;;5077562;28;20055;-66
2022/12/28 03:15:12;;;;;;;15.57;8.70;;;5.40;99.90;;;;;;5050116;28;20054;-69
2022/12/28 03:31:36;;;;;;;23.50;9.82;;;5.50;99.90;;;;;;5075527;28;20048;-70
2022/12/28 03:34:05;;;;;;;18.73;9.60;;;5.50;99.90;;;;;;5078484;28;20649;-68
2022/12/28 03:36:50;;;;;;;20.08;10.02;;;5.60;99.90;;;;;;5084777;28;20039;-69
2022/12/28 03:39:23;;;;;;;23.23;10.25;;;5.60;99.90;;;;;;5085137;28;20094;-71
2022/12/28 03:44:46;;;;;;;19.23;9.57;;;5.60;99.90;;;;;;5081465;28;20175;-70
2022/12/28 03:47:15;;;;;;;19.83;9.73;;;5.70;99.90;;;;;;5086926;28;20039;-69
2022/12/28 03:49:41;;;;;;;22.45;10.77;;;5.60;99.90;;;;;;5081835;28;20440;-69
2022/12/28 03:52:08;;;;;;;20.98;10.45;;;5.70;99.90;;;;;;5082448;28;20040;-69
2022/12/28 03:54:34;;;;;;;20.20;10.35;;;5.80;99.90;;;;;;5085738;28;20166;-70
2022/12/28 03:56:59;;;;;;;19.42;9.40;;;5.80;99.90;;;;;;5089112;28;20931;-69
2022/12/28 03:59:25;;;;;;;17.88;9.50;;;5.80;99.90;;;;;;5087715;28;20043;-69
2022/12/28 04:01:50;;;;;;;20.27;9.68;;;5.70;99.90;;;;;;5082998;28;20590;-69
2022/12/28 04:04:16;;;;;;;17.65;9.70;;;5.80;99.90;;;;;;5078844;28;20036;-70
2022/12/28 04:06:43;;;;;;;18.05;9.27;;;5.90;99.90;;;;;;5078977;28;20037;-70
2022/12/28 04:09:08;;;;;;;20.00;10.35;;;5.90;99.90;;;;;;5088387;28;20044;-71
2022/12/28 04:11:34;;;;;;;18.48;9.77;;;5.90;99.90;;;;;;5086817;28;20096;-69
2022/12/28 04:14:01;;;;;;;19.83;9.82;;;5.90;99.90;;;;;;5083383;28;20039;-71
2022/12/28 04:16:27;;;;;;;19.13;10.02;;;6.00;99.90;;;;;;5085116;28;20074;-70
2022/12/28 04:18:53;;;;;;;20.45;9.85;;;5.90;99.90;;;;;;5084414;28;20044;-70
2022/12/28 04:21:19;;;;;;;19.55;9.15;;;5.90;99.90;;;;;;5074347;28;20041;-69
2022/12/28 04:23:45;;;;;;;18.90;9.88;;;5.90;99.90;;;;;;5086048;28;20040;-71
2022/12/28 04:26:13;;;;;;;18.85;9.15;;;6.00;99.90;;;;;;5090495;28;20621;-71
2022/12/28 04:28:39;;;;;;;20.38;9.15;;;6.00;99.90;;;;;;5074494;28;20512;-69
2022/12/28 04:31:07;;;;;;;15.23;8.18;;;6.00;99.90;;;;;;5088876;28;20495;-70
2022/12/28 04:33:34;;;;;;;16.55;7.93;;;6.10;99.90;;;;;;5088303;28;20047;-70
2022/12/28 04:36:09;;;;;;;14.32;8.25;;;6.10;99.90;;;;;;5085934;28;20052;-70
2022/12/28 04:38:35;;;;;;;15.35;8.40;;;6.10;99.90;;;;;;5083434;28;20656;-70
2022/12/28 04:41:03;;;;;;;13.00;7.85;;;6.20;99.90;;;;;;5082058;28;20069;-72
2022/12/28 04:43:32;;;;;;;15.90;8.95;;;6.10;99.90;;;;;;5088559;28;20078;-68
2022/12/28 04:46:04;;;;;;;13.25;7.53;;;6.20;99.90;;;;;;5079143;28;20049;-69
2022/12/28 04:48:30;;;;;;;11.98;7.35;;;6.20;99.90;;;;;;5079379;28;20722;-72
2022/12/28 04:50:55;;;;;;;16.17;8.70;;;6.20;99.90;;;;;;5077899;28;20059;-69
2022/12/28 04:53:21;;;;;;;14.65;7.70;;;6.20;99.90;;;;;;5079618;28;20032;-69
2022/12/28 04:55:47;;;;;;;13.60;8.02;;;6.20;99.90;;;;;;5089205;28;20093;-71
2022/12/28 04:58:13;;;;;;;15.27;8.05;;;6.30;99.90;;;;;;5081884;28;20031;-69
2022/12/28 05:00:39;;;;;;;16.80;8.13;;;6.30;99.90;;;;;;5088548;28;20043;-68
2022/12/28 05:03:04;;;;;;;16.50;8.13;;;6.30;99.90;;;;;;5081148;28;20050;-69
2022/12/28 05:05:31;;;;;;;13.15;7.38;;;6.30;99.90;;;;;;5080252;28;20089;-70
2022/12/28 05:07:59;;;;;;;15.40;7.68;;;6.40;99.90;;;;;;5072877;28;20047;-68
2022/12/28 05:10:25;;;;;;;14.32;7.57;;;6.30;99.90;;;;;;5084982;28;20057;-70
2022/12/28 05:12:50;;;;;;;16.23;7.32;;;6.40;99.90;;;;;;5078134;28;20036;-70
2022/12/28 05:15:16;;;;;;;15.75;7.85;;;6.40;99.90;;;;;;5076682;28;20039;-69
2022/12/28 05:17:41;;;;;;;15.27;8.07;;;6.40;99.90;;;;;;5083694;28;20047;-68
2022/12/28 05:20:07;;;;;;;15.05;8.25;;;6.30;99.90;;;;;;5085234;28;20089;-71
2022/12/28 05:22:33;;;;;;;13.98;7.32;;;6.40;99.90;;;;;;5087810;28;20035;-69
2022/12/28 05:24:58;;;;;;;13.55;7.25;;;6.40;99.90;;;;;;5083247;28;20412;-69
2022/12/28 05:27:24;;;;;;;14.07;7.75;;;6.40;99.90;;;;;;5084974;28;20047;-71
2022/12/28 05:29:49;;;;;;;14.45;7.38;;;6.50;99.90;;;;;;5090184;28;20100;-69
2022/12/28 05:32:15;;;;;;;14.45;7.95;;;6.50;99.90;;;;;;5087332;28;20605;-68
2022/12/28 05:34:41;;;;;;;16.75;8.27;;;6.50;99.90;;;;;;5091536;28;20632;-69
2022/12/28 05:37:06;;;;;;;15.55;8.27;;;6.60;99.90;;;;;;5086058;28;20131;-67
2022/12/28 05:39:32;;;;;;;14.63;8.40;;;6.50;99.90;;;;;;5100208;28;20044;-69
2022/12/28 05:41:59;;;;;;;15.38;8.48;;;6.70;99.90;;;;;;5086156;28;20140;-72
2022/12/28 05:44:26;;;;;;;14.63;8.32;;;6.50;99.90;;;;;;5089149;28;20036;-66
2022/12/28 05:46:51;;;;;;;14.18;8.48;;;6.70;99.90;;;;;;5108874;28;20031;-68
2022/12/28 05:49:17;;;;;;;17.45;8.73;;;6.70;99.90;;;;;;5107352;28;20036;-71
2022/12/28 05:51:43;;;;;;;15.98;8.05;;;6.80;99.90;;;;;;5089180;28;20032;-70
2022/12/28 05:54:08;;;;;;;14.20;7.95;;;6.90;99.90;;;;;;5090650;28;20068;-69
2022/12/28 05:56:34;;;;;;;12.10;7.43;;;6.80;99.90;;;;;;5084827;28;20127;-68
2022/12/28 05:59:01;;;;;;;15.63;8.35;;;6.70;99.90;;;;;;5106438;28;20047;-69
2022/12/28 06:01:30;;;;;;;16.88;8.43;;;6.70;99.90;;;;;;5103145;28;20023;-68
2022/12/28 06:04:07;;;;;;;16.20;8.38;;;6.70;99.90;;;;;;5090287;28;20387;-68
2022/12/28 06:06:35;;;;;;;19.77;8.88;;;6.80;99.90;;;;;;5086722;28;20043;-68
2022/12/28 06:09:01;;;;;;;15.60;8.57;;;6.90;99.90;;;;;;5085817;28;20056;-68
2022/12/28 06:11:28;;;;;;;15.55;9.13;;;6.90;99.90;;;;;;5085110;28;20093;-66
2022/12/28 06:13:54;;;;;;;17.73;9.10;;;6.90;99.90;;;;;;5087700;28;20071;-68
2022/12/28 06:16:22;;;;;;;17.83;9.05;;;7.00;99.90;;;;;;5087870;28;20066;-69
2022/12/28 06:18:48;;;;;;;18.35;10.05;;;7.00;99.90;;;;;;5082028;28;20051;-69
2022/12/28 06:21:17;;;;;;;20.42;10.52;;;7.00;99.90;;;;;;5081072;28;20036;-68
2022/12/28 06:23:43;;;;;;;22.23;10.73;;;7.10;99.90;;;;;;5084220;28;20036;-69
2022/12/28 06:26:12;;;;;;;21.55;10.88;;;7.10;99.90;;;;;;5084614;28;20679;-70
2022/12/28 06:28:38;;;;;;;25.38;11.32;;;7.10;99.90;;;;;;5099281;28;20075;-69
2022/12/28 06:31:22;;;;;;;23.40;11.48;;;7.00;99.90;;;;;;5085600;28;20057;-69
2022/12/28 06:33:48;;;;;;;22.35;11.02;;;7.00;99.90;;;;;;5098284;28;20039;-69
2022/12/28 06:36:16;;;;;;;24.73;12.07;;;7.00;99.90;;;;;;5103337;28;20383;-68
2022/12/28 06:38:42;;;;;;;22.80;11.60;;;7.10;99.90;;;;;;5069316;28;20051;-70
2022/12/28 06:41:09;;;;;;;27.08;11.43;;;7.00;99.90;;;;;;5086560;28;20031;-69
2022/12/28 06:43:36;;;;;;;23.02;11.63;;;7.20;99.90;;;;;;5093531;28;20032;-68
2022/12/28 06:46:03;;;;;;;23.98;11.27;;;7.10;99.90;;;;;;5108737;28;20387;-70
2022/12/28 06:48:30;;;;;;;22.58;11.35;;;7.30;99.90;;;;;;5085483;28;21332;-69
2022/12/28 06:51:03;;;;;;;18.77;10.90;;;7.20;99.90;;;;;;5086708;28;20123;-67
2022/12/28 06:53:31;;;;;;;24.15;12.43;;;7.40;99.90;;;;;;5084334;28;20523;-68
2022/12/28 06:55:59;;;;;;;23.23;11.20;;;7.40;99.90;;;;;;5091304;28;20040;-67
2022/12/28 06:58:26;;;;;;;23.35;11.90;;;7.30;99.90;;;;;;5087179;28;20131;-67
2022/12/28 07:00:53;;;;;;;26.38;12.25;;;7.40;99.90;;;;;;5089208;28;20028;-69
2022/12/28 07:03:20;;;;;;;21.65;11.80;;;7.40;99.90;;;;;;5104260;28;20040;-70
2022/12/28 07:05:45;;;;;;;23.48;11.85;;;7.30;99.90;;;;;;5107519;28;20088;-68
2022/12/28 07:08:11;;;;;;;20.65;10.82;;;7.40;99.90;;;;;;5086217;28;20043;-66
2022/12/28 07:10:36;;;;;;;22.35;10.70;;;7.40;99.90;;;;;;5089042;28;20055;-66
2022/12/28 07:13:03;;;;;;;23.05;10.50;;;7.40;99.90;;;;;;5084238;28;20865;-69
2022/12/28 07:15:29;;;;;;;22.70;12.00;;;7.50;99.90;;;;;;5086940;28;20039;-69
2022/12/28 07:17:54;;;;;;;19.40;11.10;;;7.50;99.90;;;;;;5106739;28;20100;-68
2022/12/28 07:20:20;;;;;;;19.45;10.82;;;7.70;99.90;;;;;;5089576;28;20104;-66
2022/12/28 07:22:45;;;;;;;20.73;11.45;;;7.50;99.90;;;;;;5102899;28;20459;-68
2022/12/28 07:25:11;;;;;;;23.13;11.63;;;7.70;99.90;;;;;;5087954;28;20060;-68
2022/12/28 07:27:36;;;;;;;21.00;11.48;;;7.70;99.90;;;;;;5085840;28;20115;-67
2022/12/28 07:30:03;;;;;;;23.10;11.38;;;7.60;99.90;;;;;;5089685;28;20153;-69
2022/12/28 07:32:28;;;;;;;20.98;11.07;;;7.70;99.90;;;;;;5082723;28;20936;-71
2022/12/28 07:34:54;;;;;;;25.48;12.60;;;7.80;99.90;;;;;;5082682;28;20040;-69
2022/12/28 07:37:20;;;;;;;26.38;13.57;;;7.60;99.90;;;;;;5078698;28;20048;-70
2022/12/28 07:39:45;;;;;;;28.67;13.90;;;7.60;99.90;;;;;;5073508;28;20036;-66
2022/12/28 07:42:11;;;;;;;26.45;13.82;;;7.80;99.90;;;;;;5081020;28;20041;-69
2022/12/28 07:44:44;;;;;;;28.88;13.10;;;7.70;99.90;;;;;;5083456;28;20035;-69
2022/12/28 07:47:10;;;;;;;30.02;14.43;;;7.90;99.90;;;;;;5087096;28;20040;-68
2022/12/28 07:49:36;;;;;;;31.17;14.63;;;7.80;99.90;;;;;;5087325;28;20387;-71
2022/12/28 07:52:02;;;;;;;31.17;15.32;;;7.80;99.90;;;;;;5081270;28;20043;-70
2022/12/28 07:54:27;;;;;;;28.60;14.63;;;7.80;99.90;;;;;;5083010;28;20043;-69
2022/12/28 07:56:53;;;;;;;28.60;14.95;;;8.00;99.90;;;;;;5072215;28;20040;-68
2022/12/28 07:59:18;;;;;;;29.10;16.17;;;8.00;99.90;;;;;;5082805;28;20039;-67
2022/12/28 08:01:44;;;;;;;25.85;14.20;;;8.00;99.90;;;;;;5080752;28;20081;-69
2022/12/28 08:04:14;;;;;;;22.75;13.32;;;7.90;99.90;;;;;;5097519;28;20043;-67
2022/12/28 08:06:42;;;;;;;25.90;14.02;;;8.10;99.90;;;;;;5099189;28;20043;-70
2022/12/28 08:09:10;;;;;;;26.13;14.27;;;8.00;99.90;;;;;;5076888;28;20128;-69
2022/12/28 08:11:38;;;;;;;30.48;15.20;;;8.00;99.90;;;;;;5082068;28;20468;-73
2022/12/28 08:14:05;;;;;;;28.77;14.10;;;8.10;99.90;;;;;;5102670;28;20039;-71
2022/12/28 08:16:34;;;;;;;27.10;14.10;;;8.00;99.90;;;;;;5083448;28;20369;-72
2022/12/28 08:18:59;;;;;;;28.58;14.52;;;8.10;99.90;;;;;;5085633;28;20055;-71
2022/12/28 08:21:28;;;;;;;25.80;14.35;;;8.00;99.90;;;;;;5089203;28;20031;-66
2022/12/28 08:23:54;;;;;;;26.33;14.82;;;8.00;99.90;;;;;;5073173;28;20039;-69
2022/12/28 08:26:22;;;;;;;31.45;15.52;;;8.10;99.90;;;;;;5089466;28;20036;-68
2022/12/28 08:28:50;;;;;;;33.42;16.38;;;8.10;99.90;;;;;;5077119;28;20089;-70
2022/12/28 08:31:25;;;;;;;26.77;14.05;;;8.00;99.90;;;;;;5084314;28;20038;-71
2022/12/28 08:33:53;;;;;;;25.83;15.15;;;8.20;99.90;;;;;;5084030;28;20504;-71
2022/12/28 08:36:18;;;;;;;26.85;14.10;;;8.10;99.90;;;;;;5080837;28;20047;-66
2022/12/28 08:38:45;;;;;;;28.92;14.82;;;8.20;99.90;;;;;;5100474;28;20040;-66
2022/12/28 08:41:19;;;;;;;27.45;14.48;;;8.00;99.90;;;;;;5092407;28;20040;-76
2022/12/28 08:43:45;;;;;;;28.10;14.23;;;8.10;99.90;;;;;;5089784;28;20123;-68
2022/12/28 08:46:17;;;;;;;26.90;14.55;;;8.20;99.90;;;;;;5094384;28;20044;-71
2022/12/28 08:48:45;;;;;;;28.70;14.57;;;8.20;99.90;;;;;;5094153;28;20035;-70
2022/12/28 08:51:13;;;;;;;24.50;13.63;;;8.10;99.90;;;;;;5109395;28;20040;-68
2022/12/28 08:53:38;;;;;;;20.50;12.10;;;8.20;99.90;;;;;;5080050;28;20036;-70
2022/12/28 08:56:14;;;;;;;26.45;13.02;;;8.10;99.90;;;;;;5058606;28;20118;-71
2022/12/28 08:58:41;;;;;;;20.80;11.05;;;8.20;99.90;;;;;;5080196;28;20081;-68
2022/12/28 09:01:14;;;;;;;19.98;10.40;;;8.20;99.90;;;;;;5081680;28;20052;-70
2022/12/28 09:03:42;;;;;;;23.15;10.85;;;8.20;99.90;;;;;;5095433;28;20050;-71
2022/12/28 09:06:11;;;;;;;19.23;10.00;;;8.10;99.90;;;;;;5091259;28;20094;-72
2022/12/28 09:08:37;;;;;;;18.05;9.88;;;8.10;99.90;;;;;;5093531;28;20077;-69
2022/12/28 09:11:06;;;;;;;19.23;10.02;;;8.30;99.90;;;;;;5094997;28;20032;-69
2022/12/28 09:13:32;;;;;;;20.05;10.85;;;8.30;99.90;;;;;;5095645;28;20061;-69
2022/12/28 09:15:59;;;;;;;16.67;9.27;;;8.30;99.90;;;;;;5094910;28;20146;-69
2022/12/28 09:18:25;;;;;;;21.83;10.23;;;8.10;99.90;;;;;;5095125;28;20089;-69
2022/12/28 09:20:50;;;;;;;21.83;10.38;;;8.10;99.90;;;;;;5076078;28;20045;-68
2022/12/28 09:23:16;;;;;;;20.42;10.70;;;8.20;99.90;;;;;;5073852;28;20098;-69
2022/12/28 09:25:41;;;;;;;20.17;10.70;;;8.10;99.90;;;;;;5094894;28;20066;-68
2022/12/28 09:28:07;;;;;;;22.80;11.30;;;8.10;99.90;;;;;;5089417;28;20101;-67
2022/12/28 09:30:33;;;;;;;21.48;11.00;;;8.10;99.90;;;;;;5092839;28;20035;-68
2022/12/28 09:35:59;;;;;;;22.52;11.93;;;8.20;99.90;;;;;;5023846;28;20049;-67
2022/12/28 09:38:25;;;;;;;24.38;11.75;;;8.20;99.90;;;;;;5061451;28;20052;-69
2022/12/28 09:40:50;;;;;;;24.50;11.88;;;8.30;99.90;;;;;;5084178;28;20057;-66
2022/12/28 09:43:16;;;;;;;20.75;10.60;;;8.30;99.90;;;;;;5092808;28;20136;-66
2022/12/28 09:45:44;;;;;;;23.08;11.15;;;8.30;99.90;;;;;;5088428;28;20028;-66
2022/12/28 09:48:15;;;;;;;22.45;10.38;;;8.30;99.90;;;;;;5103040;28;20035;-68
2022/12/28 09:50:42;;;;;;;17.40;9.80;;;8.40;99.90;;;;;;5088793;28;20036;-68
2022/12/28 09:53:23;;;;;;;19.95;10.27;;;8.30;99.90;;;;;;5089492;28;20570;-69
2022/12/28 09:55:53;;;;;;;20.73;10.52;;;8.30;99.90;;;;;;5084094;28;20504;-69
2022/12/28 09:58:19;;;;;;;;;;;8.40;99.90;;;;;;5105413;28;20039;-70
2022/12/28 10:00:49;;;;;;;21.25;10.07;;;8.30;99.90;;;;;;5088509;28;19923;-67
2022/12/28 10:03:22;;;;;;;20.50;10.02;;;8.40;99.90;;;;;;5088449;28;20096;-69
2022/12/28 10:05:50;;;;;;;22.75;10.43;;;8.50;99.90;;;;;;5094184;28;20073;-65
2022/12/28 10:08:20;;;;;;;18.23;10.27;;;8.50;99.90;;;;;;5076747;28;20088;-68
2022/12/28 10:10:46;;;;;;;23.92;11.25;;;8.50;99.90;;;;;;5093657;28;20047;-67
2022/12/28 10:13:27;;;;;;;21.98;11.88;;;8.40;99.90;;;;;;5092373;28;20042;-69
2022/12/28 10:15:54;;;;;;;20.88;11.15;;;8.50;99.90;;;;;;5094624;28;20054;-68
2022/12/28 10:18:26;;;;;;;23.73;11.15;;;8.50;99.90;;;;;;5112268;28;20054;-68
2022/12/28 10:20:52;;;;;;;22.35;11.45;;;8.50;99.90;;;;;;5093964;28;20047;-66
2022/12/28 10:23:31;;;;;;;19.20;10.20;;;8.40;99.90;;;;;;5091457;28;20421;-68
2022/12/28 10:25:58;;;;;;;22.65;11.60;;;8.50;99.90;;;;;;5112186;28;20398;-67
2022/12/28 10:28:30;;;;;;;22.67;11.90;;;8.50;99.90;;;;;;5091431;28;20146;-68
2022/12/28 10:31:06;;;;;;;19.50;10.77;;;8.50;99.90;;;;;;5090775;28;20085;-69
2022/12/28 10:33:32;;;;;;;18.80;10.18;;;8.50;99.90;;;;;;5112057;28;20368;-69
2022/12/28 10:35:58;;;;;;;18.00;9.68;;;8.40;99.90;;;;;;5093304;28;20073;-67
2022/12/28 10:38:32;;;;;;;16.80;9.25;;;8.50;99.90;;;;;;5112371;28;20036;-66
2022/12/28 10:41:13;;;;;;;21.00;10.23;;;8.50;99.90;;;;;;5092969;28;20047;-68
2022/12/28 10:43:41;;;;;;;17.67;9.93;;;8.50;99.90;;;;;;5091908;28;20044;-69
2022/12/28 10:46:18;;;;;;;19.10;9.68;;;8.50;99.90;;;;;;5083422;28;20043;-65
2022/12/28 10:48:53;;;;;;;17.67;9.38;;;8.60;99.90;;;;;;5093915;28;20042;-70
2022/12/28 10:51:21;;;;;;;18.25;9.27;;;8.60;99.90;;;;;;5111024;28;20039;-70
2022/12/28 10:53:50;;;;;;;17.00;9.77;;;8.50;99.90;;;;;;5074661;28;20388;-69
2022/12/28 10:56:22;;;;;;;19.45;9.32;;;8.50;99.90;;;;;;5092552;28;20057;-69
2022/12/28 10:58:50;;;;;;;19.02;8.90;;;8.50;99.90;;;;;;5092332;28;20048;-65
2022/12/28 11:01:22;;;;;;;19.63;10.20;;;8.60;99.90;;;;;;5093986;28;20081;-71
2022/12/28 11:03:54;;;;;;;16.40;9.15;;;8.50;99.90;;;;;;5093151;28;20031;-70
2022/12/28 11:06:22;;;;;;;16.48;8.77;;;8.60;99.90;;;;;;5092716;28;20067;-69
2022/12/28 11:09:15;;;;;;;16.50;9.30;;;8.60;99.90;;;;;;5093796;28;20118;-68
2022/12/28 11:11:45;;;;;;;16.35;8.77;;;8.50;99.90;;;;;;5090806;28;20041;-66
2022/12/28 11:14:14;;;;;;;15.68;9.38;;;8.70;99.90;;;;;;5092621;28;20134;-68
2022/12/28 11:16:41;;;;;;;15.73;7.57;;;8.70;99.90;;;;;;5085200;28;20048;-69
2022/12/28 11:19:06;;;;;;;14.25;7.53;;;8.70;99.90;;;;;;5087675;28;20043;-71
2022/12/28 11:21:34;;;;;;;11.95;6.53;;;8.70;99.90;;;;;;5091690;28;20035;-71
2022/12/28 11:24:00;;;;;;;10.45;5.13;;;8.70;99.90;;;;;;5092025;28;20040;-70
2022/12/28 11:26:27;;;;;;;14.98;9.38;;;8.60;99.90;;;;;;5077704;28;20548;-68
2022/12/28 11:28:54;;;;;;;10.68;6.25;;;8.60;99.90;;;;;;5090713;28;20043;-71
2022/12/28 11:31:32;;;;;;;11.73;5.78;;;8.70;99.90;;;;;;5092918;28;20367;-70
2022/12/28 11:34:03;;;;;;;8.32;4.80;;;8.60;99.90;;;;;;5074124;28;20460;-67
2022/12/28 11:36:30;;;;;;;8.88;4.65;;;8.60;99.90;;;;;;5092648;28;20039;-69
2022/12/28 11:38:57;;;;;;;9.13;5.13;;;8.70;99.90;;;;;;5088820;28;20048;-69
2022/12/28 11:41:22;;;;;;;10.25;5.22;;;8.70;99.90;;;;;;5087992;28;20043;-70
2022/12/28 11:43:52;;;;;;;8.68;5.82;;;8.60;99.90;;;;;;5090946;28;20081;-69
2022/12/28 11:46:21;;;;;;;7.38;4.40;;;8.80;99.90;;;;;;5091760;28;20036;-68
2022/12/28 11:49:00;;;;;;;6.88;4.15;;;8.60;99.90;;;;;;5081611;28;20032;-69
2022/12/28 11:51:27;;;;;;;7.68;4.65;;;8.60;99.90;;;;;;5082099;28;23112;-69
2022/12/28 11:53:54;;;;;;;8.18;4.68;;;8.70;99.90;;;;;;5083286;28;20033;-68
2022/12/28 11:56:44;;;;;;;6.95;4.70;;;8.60;99.90;;;;;;5055794;28;20117;-69
2022/12/28 11:59:30;;;;;;;9.13;6.40;;;8.60;99.90;;;;;;5088744;28;20056;-72
2022/12/28 12:02:22;;;;;;;12.43;10.30;;;8.60;99.90;;;;;;5106054;28;20391;-67
2022/12/28 12:04:48;;;;;;;11.43;6.22;;;8.70;99.90;;;;;;5104481;28;20043;-68
2022/12/28 12:07:22;;;;;;;10.73;5.28;;;8.60;99.90;;;;;;5106709;28;20044;-69
2022/12/28 12:10:14;;;;;;;10.63;5.95;;;8.70;99.90;;;;;;5091394;28;20148;-67
2022/12/28 12:12:49;;;;;;;12.27;6.85;;;8.60;99.90;;;;;;5102497;28;20226;-68
2022/12/28 12:15:18;;;;;;;13.20;7.15;;;8.60;99.90;;;;;;5102587;28;20513;-68
2022/12/28 12:18:19;;;;;;;11.77;8.00;;;8.70;99.90;;;;;;5084231;28;20080;-68
2022/12/28 12:20:52;;;;;;;14.38;9.88;;;8.60;99.90;;;;;;5082577;28;20059;-68
2022/12/28 12:23:23;;;;;;;12.32;7.43;;;8.70;99.90;;;;;;5085119;28;20417;-68
2022/12/28 12:25:53;;;;;;;;;;;8.70;99.90;;;;;;5092954;28;20047;-67
2022/12/28 12:28:39;;;;;;;9.73;5.07;;;8.70;99.90;;;;;;5089272;28;19955;-66
2022/12/28 12:31:14;;;;;;;10.55;5.30;;;8.60;99.90;;;;;;5072283;28;20043;-70
2022/12/28 12:33:45;;;;;;;8.30;5.35;;;8.70;99.90;;;;;;5092066;28;20048;-69
2022/12/28 12:36:31;;;;;;;9.98;5.82;;;8.60;99.90;;;;;;5088748;28;20390;-70
2022/12/28 12:39:28;;;;;;;9.75;5.78;;;8.70;99.90;;;;;;5096004;28;20041;-67
2022/12/28 12:42:16;;;;;;;8.88;5.43;;;8.60;99.90;;;;;;5085489;28;20028;-70
2022/12/28 12:44:51;;;;;;;9.63;5.35;;;8.70;99.90;;;;;;5088885;28;20471;-68
2022/12/28 12:47:50;;;;;;;8.05;4.95;;;8.60;99.90;;;;;;5077606;28;20119;-68
2022/12/28 12:50:49;;;;;;;11.90;5.18;;;8.70;99.90;;;;;;5094609;28;20035;-69
2022/12/28 12:53:32;;;;;;;8.77;5.00;;;8.60;99.90;;;;;;5103779;28;20123;-69
2022/12/28 12:56:03;;;;;;;8.27;5.55;;;8.60;99.90;;;;;;5092232;28;20462;-68
2022/12/28 12:58:33;;;;;;;8.18;5.22;;;8.60;99.90;;;;;;5088617;28;20058;-66
2022/12/28 13:01:25;;;;;;;8.68;5.35;;;8.70;99.90;;;;;;5097521;28;20051;-69
2022/12/28 13:03:54;;;;;;;10.77;5.68;;;8.60;99.90;;;;;;5094887;28;20059;-70
2022/12/28 13:06:23;;;;;;;8.50;4.55;;;8.70;99.90;;;;;;5084172;28;20055;-68
2022/12/28 13:08:56;;;;;;;8.05;4.80;;;8.50;99.90;;;;;;5088286;28;20036;-71
2022/12/28 13:11:22;;;;;;;6.18;4.15;;;8.70;99.90;;;;;;5081093;28;20036;-68
2022/12/28 13:13:50;;;;;;;8.50;4.70;;;8.70;99.90;;;;;;5082803;28;20036;-67
2022/12/28 13:16:20;;;;;;;8.65;4.18;;;8.50;99.90;;;;;;5067069;28;20056;-66
2022/12/28 13:18:58;;;;;;;7.05;4.20;;;8.60;99.90;;;;;;5093837;28;20043;-68
2022/12/28 13:21:26;;;;;;;7.38;4.43;;;8.60;99.90;;;;;;5084775;28;20040;-67
2022/12/28 13:23:52;;;;;;;8.82;4.80;;;8.50;99.90;;;;;;5092711;28;20039;-70
2022/12/28 13:26:22;;;;;;;6.30;3.88;;;8.60;99.90;;;;;;5088658;28;20036;-69
2022/12/28 13:28:50;;;;;;;;;;;8.60;99.90;;;;;;5090177;28;20050;-68
2022/12/28 13:31:29;;;;;;;6.05;4.03;;;8.60;99.90;;;;;;5089724;28;19915;-68